sensor_id;sensor_type;location;lat;lon;timestamp;P1;durP1;ratioP1;P2;durP2;ratioP2
24557;SDS011;12726;49.148;8.582;2023-05-07T00:01:54;4.13;;;2.53;;
24557;SDS011;12726;49.148;8.582;2023-05-07T00:04:40;5.40;;;2.75;;
24557;SDS011;12726;49.148;8.582;2023-05-07T00:07:26;5.00;;;2.50;;
24557;SDS011;12726;49.148;8.582;2023-05-07T00:10:12;2.95;;;2.47;;
24557;SDS011;12726;49.148;8.582;2023-05-07T00:12:58;4.70;;;2.63;;
24557;SDS011;12726;49.148;8.582;2023-05-07T00:15:43;6.00;;;2.80;;
24557;SDS011;12726;49.148;8.582;2023-05-07T00:18:28;6.72;;;2.90;;
24557;SDS011;12726;49.148;8.582;2023-05-07T00:21:13;3.83;;;2.67;;
24557;SDS011;12726;49.148;8.582;2023-05-07T00:23:59;5.03;;;2.80;;
24557;SDS011;12726;49.148;8.582;2023-05-07T00:26:46;3.58;;;3.00;;
24557;SDS011;12726;49.148;8.582;2023-05-07T00:29:31;5.45;;;2.58;;
24557;SDS011;12726;49.148;8.582;2023-05-07T00:32:16;4.20;;;2.92;;
24557;SDS011;12726;49.148;8.582;2023-05-07T00:35:02;3.53;;;2.88;;
24557;SDS011;12726;49.148;8.582;2023-05-07T00:37:47;4.03;;;3.35;;
24557;SDS011;12726;49.148;8.582;2023-05-07T00:40:33;6.95;;;2.88;;
24557;SDS011;12726;49.148;8.582;2023-05-07T00:43:20;3.90;;;2.80;;
24557;SDS011;12726;49.148;8.582;2023-05-07T00:46:05;4.32;;;2.70;;
24557;SDS011;12726;49.148;8.582;2023-05-07T00:48:50;3.58;;;2.70;;
24557;SDS011;12726;49.148;8.582;2023-05-07T00:51:36;3.97;;;2.90;;
24557;SDS011;12726;49.148;8.582;2023-05-07T00:54:21;6.05;;;2.85;;
24557;SDS011;12726;49.148;8.582;2023-05-07T00:57:07;4.47;;;3.25;;
24557;SDS011;12726;49.148;8.582;2023-05-07T00:59:56;4.20;;;2.67;;
24557;SDS011;12726;49.148;8.582;2023-05-07T01:02:41;3.67;;;2.72;;
24557;SDS011;12726;49.148;8.582;2023-05-07T01:05:27;3.20;;;2.58;;
24557;SDS011;12726;49.148;8.582;2023-05-07T01:08:13;3.13;;;2.70;;
24557;SDS011;12726;49.148;8.582;2023-05-07T01:11:00;6.78;;;2.92;;
24557;SDS011;12726;49.148;8.582;2023-05-07T01:13:47;5.72;;;3.10;;
24557;SDS011;12726;49.148;8.582;2023-05-07T01:16:35;3.65;;;2.83;;
24557;SDS011;12726;49.148;8.582;2023-05-07T01:19:21;4.55;;;2.58;;
24557;SDS011;12726;49.148;8.582;2023-05-07T01:22:07;4.43;;;2.65;;
24557;SDS011;12726;49.148;8.582;2023-05-07T01:24:56;4.63;;;2.80;;
24557;SDS011;12726;49.148;8.582;2023-05-07T01:27:43;3.47;;;2.65;;
24557;SDS011;12726;49.148;8.582;2023-05-07T01:30:28;5.03;;;2.97;;
24557;SDS011;12726;49.148;8.582;2023-05-07T01:33:15;4.93;;;3.10;;
24557;SDS011;12726;49.148;8.582;2023-05-07T01:36:05;2.95;;;2.50;;
24557;SDS011;12726;49.148;8.582;2023-05-07T01:38:53;4.53;;;2.70;;
24557;SDS011;12726;49.148;8.582;2023-05-07T01:41:39;4.65;;;2.50;;
24557;SDS011;12726;49.148;8.582;2023-05-07T01:44:25;4.80;;;3.03;;
24557;SDS011;12726;49.148;8.582;2023-05-07T01:47:11;4.85;;;3.03;;
24557;SDS011;12726;49.148;8.582;2023-05-07T01:49:58;3.50;;;2.80;;
24557;SDS011;12726;49.148;8.582;2023-05-07T01:52:43;3.25;;;2.50;;
24557;SDS011;12726;49.148;8.582;2023-05-07T01:55:28;4.35;;;2.55;;
24557;SDS011;12726;49.148;8.582;2023-05-07T01:58:15;4.30;;;2.80;;
24557;SDS011;12726;49.148;8.582;2023-05-07T02:01:01;4.03;;;2.78;;
24557;SDS011;12726;49.148;8.582;2023-05-07T02:03:46;4.90;;;2.80;;
24557;SDS011;12726;49.148;8.582;2023-05-07T02:06:31;3.40;;;2.10;;
24557;SDS011;12726;49.148;8.582;2023-05-07T02:09:17;4.50;;;2.85;;
24557;SDS011;12726;49.148;8.582;2023-05-07T02:12:02;3.08;;;2.47;;
24557;SDS011;12726;49.148;8.582;2023-05-07T02:14:50;4.32;;;2.50;;
24557;SDS011;12726;49.148;8.582;2023-05-07T02:17:35;3.83;;;2.50;;
24557;SDS011;12726;49.148;8.582;2023-05-07T02:20:21;6.32;;;2.40;;
24557;SDS011;12726;49.148;8.582;2023-05-07T02:23:06;3.08;;;2.45;;
24557;SDS011;12726;49.148;8.582;2023-05-07T02:25:52;2.78;;;2.20;;
24557;SDS011;12726;49.148;8.582;2023-05-07T02:28:37;2.95;;;2.28;;
24557;SDS011;12726;49.148;8.582;2023-05-07T02:31:24;4.05;;;2.60;;
24557;SDS011;12726;49.148;8.582;2023-05-07T02:34:09;6.28;;;2.95;;
24557;SDS011;12726;49.148;8.582;2023-05-07T02:36:54;3.58;;;2.78;;
24557;SDS011;12726;49.148;8.582;2023-05-07T02:39:40;3.72;;;2.67;;
24557;SDS011;12726;49.148;8.582;2023-05-07T02:42:26;2.97;;;2.67;;
24557;SDS011;12726;49.148;8.582;2023-05-07T02:45:11;3.03;;;2.70;;
24557;SDS011;12726;49.148;8.582;2023-05-07T02:47:58;5.00;;;2.60;;
24557;SDS011;12726;49.148;8.582;2023-05-07T02:50:43;3.65;;;2.40;;
24557;SDS011;12726;49.148;8.582;2023-05-07T02:53:28;4.18;;;3.20;;
24557;SDS011;12726;49.148;8.582;2023-05-07T02:56:14;4.47;;;3.22;;
24557;SDS011;12726;49.148;8.582;2023-05-07T02:58:59;5.10;;;2.97;;
24557;SDS011;12726;49.148;8.582;2023-05-07T03:01:45;4.75;;;3.30;;
24557;SDS011;12726;49.148;8.582;2023-05-07T03:04:31;3.30;;;2.92;;
24557;SDS011;12726;49.148;8.582;2023-05-07T03:07:16;3.72;;;2.63;;
24557;SDS011;12726;49.148;8.582;2023-05-07T03:10:02;4.20;;;2.95;;
24557;SDS011;12726;49.148;8.582;2023-05-07T03:12:47;3.75;;;2.70;;
24557;SDS011;12726;49.148;8.582;2023-05-07T03:15:33;4.10;;;2.88;;
24557;SDS011;12726;49.148;8.582;2023-05-07T03:18:18;3.95;;;3.00;;
24557;SDS011;12726;49.148;8.582;2023-05-07T03:21:05;4.28;;;3.05;;
24557;SDS011;12726;49.148;8.582;2023-05-07T03:23:50;5.38;;;3.30;;
24557;SDS011;12726;49.148;8.582;2023-05-07T03:26:36;4.28;;;2.97;;
24557;SDS011;12726;49.148;8.582;2023-05-07T03:29:21;4.75;;;2.80;;
24557;SDS011;12726;49.148;8.582;2023-05-07T03:32:06;3.22;;;2.83;;
24557;SDS011;12726;49.148;8.582;2023-05-07T03:34:52;4.18;;;2.90;;
24557;SDS011;12726;49.148;8.582;2023-05-07T03:37:39;3.33;;;3.00;;
24557;SDS011;12726;49.148;8.582;2023-05-07T03:40:25;4.05;;;3.20;;
24557;SDS011;12726;49.148;8.582;2023-05-07T03:43:10;6.68;;;3.08;;
24557;SDS011;12726;49.148;8.582;2023-05-07T03:45:56;3.95;;;3.28;;
24557;SDS011;12726;49.148;8.582;2023-05-07T03:48:41;5.80;;;3.25;;
24557;SDS011;12726;49.148;8.582;2023-05-07T03:51:26;4.53;;;3.33;;
24557;SDS011;12726;49.148;8.582;2023-05-07T03:54:13;3.17;;;2.17;;
24557;SDS011;12726;49.148;8.582;2023-05-07T03:56:58;3.05;;;2.65;;
24557;SDS011;12726;49.148;8.582;2023-05-07T03:59:44;4.68;;;2.83;;
24557;SDS011;12726;49.148;8.582;2023-05-07T04:02:29;4.20;;;2.67;;
24557;SDS011;12726;49.148;8.582;2023-05-07T04:05:15;4.05;;;2.35;;
24557;SDS011;12726;49.148;8.582;2023-05-07T04:08:00;3.92;;;2.67;;
24557;SDS011;12726;49.148;8.582;2023-05-07T04:10:47;2.92;;;2.50;;
24557;SDS011;12726;49.148;8.582;2023-05-07T04:13:32;3.70;;;2.72;;
24557;SDS011;12726;49.148;8.582;2023-05-07T04:16:17;4.10;;;2.55;;
24557;SDS011;12726;49.148;8.582;2023-05-07T04:19:03;2.92;;;1.83;;
24557;SDS011;12726;49.148;8.582;2023-05-07T04:21:49;2.42;;;2.20;;
24557;SDS011;12726;49.148;8.582;2023-05-07T04:24:34;4.75;;;2.30;;
24557;SDS011;12726;49.148;8.582;2023-05-07T04:27:21;3.35;;;2.90;;
24557;SDS011;12726;49.148;8.582;2023-05-07T04:30:07;5.00;;;3.00;;
24557;SDS011;12726;49.148;8.582;2023-05-07T04:32:53;5.70;;;3.50;;
24557;SDS011;12726;49.148;8.582;2023-05-07T04:35:40;4.07;;;3.45;;
24557;SDS011;12726;49.148;8.582;2023-05-07T04:38:25;4.90;;;3.60;;
24557;SDS011;12726;49.148;8.582;2023-05-07T04:41:12;4.95;;;3.20;;
24557;SDS011;12726;49.148;8.582;2023-05-07T04:43:59;4.30;;;3.00;;
24557;SDS011;12726;49.148;8.582;2023-05-07T04:46:44;4.68;;;3.00;;
24557;SDS011;12726;49.148;8.582;2023-05-07T04:49:29;4.20;;;2.80;;
24557;SDS011;12726;49.148;8.582;2023-05-07T04:52:14;3.40;;;3.10;;
24557;SDS011;12726;49.148;8.582;2023-05-07T04:55:00;3.03;;;2.70;;
24557;SDS011;12726;49.148;8.582;2023-05-07T04:57:45;4.78;;;2.90;;
24557;SDS011;12726;49.148;8.582;2023-05-07T05:00:32;4.13;;;2.65;;
24557;SDS011;12726;49.148;8.582;2023-05-07T05:03:17;5.35;;;3.00;;
24557;SDS011;12726;49.148;8.582;2023-05-07T05:06:03;4.70;;;3.40;;
24557;SDS011;12726;49.148;8.582;2023-05-07T05:08:48;7.47;;;3.22;;
24557;SDS011;12726;49.148;8.582;2023-05-07T05:11:34;4.18;;;3.35;;
24557;SDS011;12726;49.148;8.582;2023-05-07T05:14:19;5.50;;;3.55;;
24557;SDS011;12726;49.148;8.582;2023-05-07T05:17:06;5.55;;;2.80;;
24557;SDS011;12726;49.148;8.582;2023-05-07T05:19:51;6.15;;;2.67;;
24557;SDS011;12726;49.148;8.582;2023-05-07T05:22:36;4.35;;;2.80;;
24557;SDS011;12726;49.148;8.582;2023-05-07T05:25:22;3.00;;;2.70;;
24557;SDS011;12726;49.148;8.582;2023-05-07T05:28:07;3.05;;;2.65;;
24557;SDS011;12726;49.148;8.582;2023-05-07T05:30:52;4.18;;;3.15;;
24557;SDS011;12726;49.148;8.582;2023-05-07T05:33:39;7.78;;;3.00;;
24557;SDS011;12726;49.148;8.582;2023-05-07T05:36:24;3.83;;;2.97;;
24557;SDS011;12726;49.148;8.582;2023-05-07T05:39:10;4.13;;;2.95;;
24557;SDS011;12726;49.148;8.582;2023-05-07T05:41:55;3.58;;;2.70;;
24557;SDS011;12726;49.148;8.582;2023-05-07T05:44:41;3.38;;;2.83;;
24557;SDS011;12726;49.148;8.582;2023-05-07T05:47:26;4.43;;;2.92;;
24557;SDS011;12726;49.148;8.582;2023-05-07T05:50:13;4.32;;;2.70;;
24557;SDS011;12726;49.148;8.582;2023-05-07T05:53:00;4.25;;;2.40;;
24557;SDS011;12726;49.148;8.582;2023-05-07T05:55:45;3.30;;;2.85;;
24557;SDS011;12726;49.148;8.582;2023-05-07T05:58:31;4.82;;;2.88;;
24557;SDS011;12726;49.148;8.582;2023-05-07T06:01:16;5.63;;;2.63;;
24557;SDS011;12726;49.148;8.582;2023-05-07T06:04:02;3.10;;;2.50;;
24557;SDS011;12726;49.148;8.582;2023-05-07T06:06:48;3.15;;;2.70;;
24557;SDS011;12726;49.148;8.582;2023-05-07T06:09:34;5.22;;;2.58;;
24557;SDS011;12726;49.148;8.582;2023-05-07T06:12:20;2.67;;;2.20;;
24557;SDS011;12726;49.148;8.582;2023-05-07T06:15:06;5.95;;;2.90;;
24557;SDS011;12726;49.148;8.582;2023-05-07T06:17:51;4.00;;;2.38;;
24557;SDS011;12726;49.148;8.582;2023-05-07T06:20:37;3.00;;;2.45;;
24557;SDS011;12726;49.148;8.582;2023-05-07T06:23:23;4.30;;;2.50;;
24557;SDS011;12726;49.148;8.582;2023-05-07T06:26:09;2.92;;;2.30;;
24557;SDS011;12726;49.148;8.582;2023-05-07T06:28:55;2.63;;;2.30;;
24557;SDS011;12726;49.148;8.582;2023-05-07T06:31:40;2.25;;;1.80;;
24557;SDS011;12726;49.148;8.582;2023-05-07T06:34:25;2.92;;;2.15;;
24557;SDS011;12726;49.148;8.582;2023-05-07T06:37:11;3.70;;;2.35;;
24557;SDS011;12726;49.148;8.582;2023-05-07T06:39:57;4.13;;;2.38;;
24557;SDS011;12726;49.148;8.582;2023-05-07T06:42:42;3.25;;;2.20;;
24557;SDS011;12726;49.148;8.582;2023-05-07T06:45:28;5.03;;;2.22;;
24557;SDS011;12726;49.148;8.582;2023-05-07T06:48:13;6.43;;;2.33;;
24557;SDS011;12726;49.148;8.582;2023-05-07T06:50:58;3.13;;;2.03;;
24557;SDS011;12726;49.148;8.582;2023-05-07T06:53:44;2.42;;;2.05;;
24557;SDS011;12726;49.148;8.582;2023-05-07T06:56:31;3.90;;;2.00;;
24557;SDS011;12726;49.148;8.582;2023-05-07T06:59:17;4.00;;;1.90;;
24557;SDS011;12726;49.148;8.582;2023-05-07T07:02:02;4.65;;;2.30;;
24557;SDS011;12726;49.148;8.582;2023-05-07T07:04:48;5.18;;;2.10;;
24557;SDS011;12726;49.148;8.582;2023-05-07T07:07:33;2.55;;;2.22;;
24557;SDS011;12726;49.148;8.582;2023-05-07T07:10:19;3.58;;;2.35;;
24557;SDS011;12726;49.148;8.582;2023-05-07T07:13:05;2.97;;;2.33;;
24557;SDS011;12726;49.148;8.582;2023-05-07T07:15:51;3.45;;;2.20;;
24557;SDS011;12726;49.148;8.582;2023-05-07T07:18:36;2.88;;;2.20;;
24557;SDS011;12726;49.148;8.582;2023-05-07T07:21:22;3.58;;;2.17;;
24557;SDS011;12726;49.148;8.582;2023-05-07T07:24:07;3.47;;;2.05;;
24557;SDS011;12726;49.148;8.582;2023-05-07T07:26:53;2.17;;;1.90;;
24557;SDS011;12726;49.148;8.582;2023-05-07T07:29:40;3.70;;;2.05;;
24557;SDS011;12726;49.148;8.582;2023-05-07T07:32:26;2.35;;;2.17;;
24557;SDS011;12726;49.148;8.582;2023-05-07T07:35:11;4.53;;;1.80;;
24557;SDS011;12726;49.148;8.582;2023-05-07T07:37:57;2.90;;;2.17;;
24557;SDS011;12726;49.148;8.582;2023-05-07T07:40:42;2.67;;;2.20;;
24557;SDS011;12726;49.148;8.582;2023-05-07T07:43:28;2.67;;;2.20;;
24557;SDS011;12726;49.148;8.582;2023-05-07T07:46:14;3.85;;;2.40;;
24557;SDS011;12726;49.148;8.582;2023-05-07T07:49:00;2.90;;;1.90;;
24557;SDS011;12726;49.148;8.582;2023-05-07T07:51:45;2.92;;;1.70;;
24557;SDS011;12726;49.148;8.582;2023-05-07T07:54:31;2.15;;;1.80;;
24557;SDS011;12726;49.148;8.582;2023-05-07T07:57:16;2.28;;;1.70;;
24557;SDS011;12726;49.148;8.582;2023-05-07T08:00:02;2.47;;;1.90;;
24557;SDS011;12726;49.148;8.582;2023-05-07T08:02:49;2.38;;;1.52;;
24557;SDS011;12726;49.148;8.582;2023-05-07T08:05:34;2.15;;;1.83;;
24557;SDS011;12726;49.148;8.582;2023-05-07T08:08:20;4.43;;;2.17;;
24557;SDS011;12726;49.148;8.582;2023-05-07T08:11:05;1.95;;;1.50;;
24557;SDS011;12726;49.148;8.582;2023-05-07T08:13:51;2.58;;;1.85;;
24557;SDS011;12726;49.148;8.582;2023-05-07T08:16:36;2.13;;;1.40;;
24557;SDS011;12726;49.148;8.582;2023-05-07T08:19:23;3.08;;;2.13;;
24557;SDS011;12726;49.148;8.582;2023-05-07T08:22:08;2.53;;;1.20;;
24557;SDS011;12726;49.148;8.582;2023-05-07T08:24:54;2.50;;;1.88;;
24557;SDS011;12726;49.148;8.582;2023-05-07T08:27:39;2.42;;;1.73;;
24557;SDS011;12726;49.148;8.582;2023-05-07T08:30:25;2.38;;;1.73;;
24557;SDS011;12726;49.148;8.582;2023-05-07T08:33:10;2.33;;;1.58;;
24557;SDS011;12726;49.148;8.582;2023-05-07T08:35:57;1.80;;;1.70;;
24557;SDS011;12726;49.148;8.582;2023-05-07T08:38:43;2.35;;;2.00;;
24557;SDS011;12726;49.148;8.582;2023-05-07T08:41:29;2.25;;;1.90;;
24557;SDS011;12726;49.148;8.582;2023-05-07T08:44:15;2.92;;;1.70;;
24557;SDS011;12726;49.148;8.582;2023-05-07T08:47:06;7.32;;;2.17;;
24557;SDS011;12726;49.148;8.582;2023-05-07T08:49:52;2.63;;;1.90;;
24557;SDS011;12726;49.148;8.582;2023-05-07T08:52:40;2.88;;;2.05;;
24557;SDS011;12726;49.148;8.582;2023-05-07T08:55:25;4.50;;;2.03;;
24557;SDS011;12726;49.148;8.582;2023-05-07T08:58:13;2.15;;;1.52;;
24557;SDS011;12726;49.148;8.582;2023-05-07T09:00:59;2.10;;;1.80;;
24557;SDS011;12726;49.148;8.582;2023-05-07T09:03:49;1.92;;;1.60;;
24557;SDS011;12726;49.148;8.582;2023-05-07T09:06:36;2.10;;;1.88;;
24557;SDS011;12726;49.148;8.582;2023-05-07T09:09:26;2.60;;;1.83;;
24557;SDS011;12726;49.148;8.582;2023-05-07T09:12:12;2.08;;;1.90;;
24557;SDS011;12726;49.148;8.582;2023-05-07T09:14:57;5.63;;;1.98;;
24557;SDS011;12726;49.148;8.582;2023-05-07T09:17:44;2.03;;;1.77;;
24557;SDS011;12726;49.148;8.582;2023-05-07T09:20:29;2.53;;;1.65;;
24557;SDS011;12726;49.148;8.582;2023-05-07T09:23:15;3.08;;;1.58;;
24557;SDS011;12726;49.148;8.582;2023-05-07T09:26:02;2.28;;;1.58;;
24557;SDS011;12726;49.148;8.582;2023-05-07T09:28:48;3.75;;;1.90;;
24557;SDS011;12726;49.148;8.582;2023-05-07T09:31:36;2.47;;;1.98;;
24557;SDS011;12726;49.148;8.582;2023-05-07T09:34:21;2.03;;;1.83;;
24557;SDS011;12726;49.148;8.582;2023-05-07T09:37:07;5.60;;;1.90;;
24557;SDS011;12726;49.148;8.582;2023-05-07T09:39:52;4.68;;;2.10;;
24557;SDS011;12726;49.148;8.582;2023-05-07T09:42:40;2.63;;;1.70;;
24557;SDS011;12726;49.148;8.582;2023-05-07T09:45:25;2.58;;;2.22;;
24557;SDS011;12726;49.148;8.582;2023-05-07T09:48:11;3.15;;;1.63;;
24557;SDS011;12726;49.148;8.582;2023-05-07T09:51:01;7.25;;;2.10;;
24557;SDS011;12726;49.148;8.582;2023-05-07T09:53:47;1.92;;;1.63;;
24557;SDS011;12726;49.148;8.582;2023-05-07T09:56:33;2.38;;;1.80;;
24557;SDS011;12726;49.148;8.582;2023-05-07T09:59:22;3.03;;;1.50;;
24557;SDS011;12726;49.148;8.582;2023-05-07T10:02:09;2.63;;;1.45;;
24557;SDS011;12726;49.148;8.582;2023-05-07T10:04:55;2.83;;;1.80;;
24557;SDS011;12726;49.148;8.582;2023-05-07T10:07:41;2.67;;;1.90;;
24557;SDS011;12726;49.148;8.582;2023-05-07T10:10:27;2.42;;;1.50;;
24557;SDS011;12726;49.148;8.582;2023-05-07T10:13:12;5.93;;;2.03;;
24557;SDS011;12726;49.148;8.582;2023-05-07T10:15:59;1.73;;;1.63;;
24557;SDS011;12726;49.148;8.582;2023-05-07T10:18:45;3.17;;;1.70;;
24557;SDS011;12726;49.148;8.582;2023-05-07T10:21:32;4.07;;;1.98;;
24557;SDS011;12726;49.148;8.582;2023-05-07T10:24:21;2.53;;;1.75;;
24557;SDS011;12726;49.148;8.582;2023-05-07T10:27:10;3.13;;;1.48;;
24557;SDS011;12726;49.148;8.582;2023-05-07T10:30:00;2.15;;;1.40;;
24557;SDS011;12726;49.148;8.582;2023-05-07T10:33:01;3.67;;;1.50;;
24557;SDS011;12726;49.148;8.582;2023-05-07T10:35:50;1.90;;;1.67;;
24557;SDS011;12726;49.148;8.582;2023-05-07T10:38:36;2.03;;;1.40;;
24557;SDS011;12726;49.148;8.582;2023-05-07T10:41:21;4.82;;;1.92;;
24557;SDS011;12726;49.148;8.582;2023-05-07T10:44:07;2.17;;;1.98;;
24557;SDS011;12726;49.148;8.582;2023-05-07T10:47:05;4.93;;;2.35;;
24557;SDS011;12726;49.148;8.582;2023-05-07T10:59:30;3.45;;;1.98;;
24557;SDS011;12726;49.148;8.582;2023-05-07T11:02:25;3.78;;;1.38;;
24557;SDS011;12726;49.148;8.582;2023-05-07T11:06:08;1.92;;;1.42;;
24557;SDS011;12726;49.148;8.582;2023-05-07T11:08:55;2.70;;;1.80;;
24557;SDS011;12726;49.148;8.582;2023-05-07T11:11:44;2.15;;;1.83;;
24557;SDS011;12726;49.148;8.582;2023-05-07T11:14:42;2.25;;;1.60;;
24557;SDS011;12726;49.148;8.582;2023-05-07T11:17:29;2.00;;;1.55;;
24557;SDS011;12726;49.148;8.582;2023-05-07T11:20:15;4.13;;;1.80;;
24557;SDS011;12726;49.148;8.582;2023-05-07T11:23:05;2.78;;;1.60;;
24557;SDS011;12726;49.148;8.582;2023-05-07T11:25:51;2.78;;;1.80;;
24557;SDS011;12726;49.148;8.582;2023-05-07T11:28:44;2.97;;;1.48;;
24557;SDS011;12726;49.148;8.582;2023-05-07T11:31:29;3.90;;;1.50;;
24557;SDS011;12726;49.148;8.582;2023-05-07T11:34:15;3.63;;;1.77;;
24557;SDS011;12726;49.148;8.582;2023-05-07T11:37:06;2.90;;;1.60;;
24557;SDS011;12726;49.148;8.582;2023-05-07T11:39:54;1.73;;;1.63;;
24557;SDS011;12726;49.148;8.582;2023-05-07T11:42:49;3.78;;;1.70;;
24557;SDS011;12726;49.148;8.582;2023-05-07T11:45:34;1.92;;;1.58;;
24557;SDS011;12726;49.148;8.582;2023-05-07T11:48:20;2.00;;;1.50;;
24557;SDS011;12726;49.148;8.582;2023-05-07T11:51:06;3.47;;;1.98;;
24557;SDS011;12726;49.148;8.582;2023-05-07T11:53:55;2.83;;;1.50;;
24557;SDS011;12726;49.148;8.582;2023-05-07T11:56:42;2.10;;;1.70;;
24557;SDS011;12726;49.148;8.582;2023-05-07T11:59:28;3.60;;;1.80;;
24557;SDS011;12726;49.148;8.582;2023-05-07T12:02:14;3.08;;;1.73;;
24557;SDS011;12726;49.148;8.582;2023-05-07T12:05:00;3.00;;;1.60;;
24557;SDS011;12726;49.148;8.582;2023-05-07T12:07:46;5.10;;;2.03;;
24557;SDS011;12726;49.148;8.582;2023-05-07T12:10:31;1.92;;;1.50;;
24557;SDS011;12726;49.148;8.582;2023-05-07T12:13:18;2.40;;;2.13;;
24557;SDS011;12726;49.148;8.582;2023-05-07T12:16:05;4.25;;;1.88;;
24557;SDS011;12726;49.148;8.582;2023-05-07T12:18:51;6.07;;;1.65;;
24557;SDS011;12726;49.148;8.582;2023-05-07T12:21:39;2.28;;;1.60;;
24557;SDS011;12726;49.148;8.582;2023-05-07T12:24:25;1.52;;;1.42;;
24557;SDS011;12726;49.148;8.582;2023-05-07T12:27:10;3.58;;;1.65;;
24557;SDS011;12726;49.148;8.582;2023-05-07T12:29:58;1.48;;;1.38;;
24557;SDS011;12726;49.148;8.582;2023-05-07T12:32:44;3.85;;;2.05;;
24557;SDS011;12726;49.148;8.582;2023-05-07T12:35:30;2.75;;;1.48;;
24557;SDS011;12726;49.148;8.582;2023-05-07T12:38:17;2.83;;;1.42;;
24557;SDS011;12726;49.148;8.582;2023-05-07T12:41:03;2.70;;;1.58;;
24557;SDS011;12726;49.148;8.582;2023-05-07T12:43:49;8.32;;;1.90;;
24557;SDS011;12726;49.148;8.582;2023-05-07T12:46:39;2.03;;;1.30;;
24557;SDS011;12726;49.148;8.582;2023-05-07T12:49:24;1.63;;;1.33;;
24557;SDS011;12726;49.148;8.582;2023-05-07T12:52:10;3.97;;;1.67;;
24557;SDS011;12726;49.148;8.582;2023-05-07T12:54:56;2.10;;;1.48;;
24557;SDS011;12726;49.148;8.582;2023-05-07T12:57:42;2.05;;;1.40;;
24557;SDS011;12726;49.148;8.582;2023-05-07T13:00:34;2.55;;;1.15;;
24557;SDS011;12726;49.148;8.582;2023-05-07T13:03:22;2.00;;;1.50;;
24557;SDS011;12726;49.148;8.582;2023-05-07T13:06:09;2.35;;;1.58;;
24557;SDS011;12726;49.148;8.582;2023-05-07T13:08:55;6.45;;;1.50;;
24557;SDS011;12726;49.148;8.582;2023-05-07T13:11:41;1.35;;;1.25;;
24557;SDS011;12726;49.148;8.582;2023-05-07T13:14:26;2.65;;;1.58;;
24557;SDS011;12726;49.148;8.582;2023-05-07T13:17:12;3.70;;;1.40;;
24557;SDS011;12726;49.148;8.582;2023-05-07T13:19:58;2.65;;;1.60;;
24557;SDS011;12726;49.148;8.582;2023-05-07T13:22:44;2.45;;;1.27;;
24557;SDS011;12726;49.148;8.582;2023-05-07T13:25:29;2.38;;;1.50;;
24557;SDS011;12726;49.148;8.582;2023-05-07T13:28:15;2.63;;;1.30;;
24557;SDS011;12726;49.148;8.582;2023-05-07T13:31:00;4.43;;;2.10;;
24557;SDS011;12726;49.148;8.582;2023-05-07T13:33:46;2.58;;;1.75;;
24557;SDS011;12726;49.148;8.582;2023-05-07T13:36:33;2.95;;;1.98;;
24557;SDS011;12726;49.148;8.582;2023-05-07T13:39:20;7.00;;;1.98;;
24557;SDS011;12726;49.148;8.582;2023-05-07T13:42:06;3.80;;;2.30;;
24557;SDS011;12726;49.148;8.582;2023-05-07T13:44:51;7.38;;;2.13;;
24557;SDS011;12726;49.148;8.582;2023-05-07T13:47:37;1.48;;;0.80;;
24557;SDS011;12726;49.148;8.582;2023-05-07T13:50:22;2.58;;;1.27;;
24557;SDS011;12726;49.148;8.582;2023-05-07T13:53:09;5.65;;;1.67;;
24557;SDS011;12726;49.148;8.582;2023-05-07T13:55:55;3.83;;;1.50;;
24557;SDS011;12726;49.148;8.582;2023-05-07T13:58:40;4.57;;;1.30;;
24557;SDS011;12726;49.148;8.582;2023-05-07T14:01:26;6.82;;;1.48;;
24557;SDS011;12726;49.148;8.582;2023-05-07T14:04:12;5.10;;;1.48;;
24557;SDS011;12726;49.148;8.582;2023-05-07T14:06:57;6.68;;;1.30;;
24557;SDS011;12726;49.148;8.582;2023-05-07T14:09:44;7.68;;;1.30;;
24557;SDS011;12726;49.148;8.582;2023-05-07T14:12:30;4.68;;;1.50;;
24557;SDS011;12726;49.148;8.582;2023-05-07T14:15:16;9.82;;;2.00;;
24557;SDS011;12726;49.148;8.582;2023-05-07T14:18:02;1.90;;;0.82;;
24557;SDS011;12726;49.148;8.582;2023-05-07T14:20:47;3.85;;;0.85;;
24557;SDS011;12726;49.148;8.582;2023-05-07T14:23:32;7.70;;;1.17;;
24557;SDS011;12726;49.148;8.582;2023-05-07T14:26:19;6.25;;;1.23;;
24557;SDS011;12726;49.148;8.582;2023-05-07T14:29:04;3.67;;;1.45;;
24557;SDS011;12726;49.148;8.582;2023-05-07T14:31:50;6.53;;;1.55;;
24557;SDS011;12726;49.148;8.582;2023-05-07T14:34:35;5.95;;;1.77;;
24557;SDS011;12726;49.148;8.582;2023-05-07T14:37:20;8.65;;;1.75;;
24557;SDS011;12726;49.148;8.582;2023-05-07T14:40:06;4.72;;;1.30;;
24557;SDS011;12726;49.148;8.582;2023-05-07T14:42:53;3.97;;;1.55;;
24557;SDS011;12726;49.148;8.582;2023-05-07T14:45:41;4.75;;;1.73;;
24557;SDS011;12726;49.148;8.582;2023-05-07T14:48:26;3.70;;;1.30;;
24557;SDS011;12726;49.148;8.582;2023-05-07T14:51:11;4.68;;;1.85;;
24557;SDS011;12726;49.148;8.582;2023-05-07T14:53:58;6.35;;;2.10;;
24557;SDS011;12726;49.148;8.582;2023-05-07T14:56:43;5.80;;;1.35;;
24557;SDS011;12726;49.148;8.582;2023-05-07T14:59:30;8.57;;;1.80;;
24557;SDS011;12726;49.148;8.582;2023-05-07T15:02:16;11.15;;;3.97;;
24557;SDS011;12726;49.148;8.582;2023-05-07T15:05:02;6.45;;;2.72;;
24557;SDS011;12726;49.148;8.582;2023-05-07T15:07:47;5.80;;;2.33;;
24557;SDS011;12726;49.148;8.582;2023-05-07T15:10:34;6.40;;;2.20;;
24557;SDS011;12726;49.148;8.582;2023-05-07T15:13:24;7.65;;;2.70;;
24557;SDS011;12726;49.148;8.582;2023-05-07T15:16:11;7.38;;;2.53;;
24557;SDS011;12726;49.148;8.582;2023-05-07T15:18:56;4.47;;;2.38;;
24557;SDS011;12726;49.148;8.582;2023-05-07T15:21:41;6.28;;;2.53;;
24557;SDS011;12726;49.148;8.582;2023-05-07T15:24:26;5.22;;;2.72;;
24557;SDS011;12726;49.148;8.582;2023-05-07T15:27:12;4.15;;;2.50;;
24557;SDS011;12726;49.148;8.582;2023-05-07T15:29:57;4.40;;;2.05;;
24557;SDS011;12726;49.148;8.582;2023-05-07T15:32:44;5.32;;;2.70;;
24557;SDS011;12726;49.148;8.582;2023-05-07T15:35:29;8.90;;;4.72;;
24557;SDS011;12726;49.148;8.582;2023-05-07T15:38:15;9.27;;;3.55;;
24557;SDS011;12726;49.148;8.582;2023-05-07T15:41:00;7.15;;;3.45;;
24557;SDS011;12726;49.148;8.582;2023-05-07T15:43:46;4.85;;;2.42;;
24557;SDS011;12726;49.148;8.582;2023-05-07T15:46:33;6.22;;;2.85;;
24557;SDS011;12726;49.148;8.582;2023-05-07T15:49:20;3.70;;;2.70;;
24557;SDS011;12726;49.148;8.582;2023-05-07T15:52:05;6.57;;;2.97;;
24557;SDS011;12726;49.148;8.582;2023-05-07T15:54:51;6.00;;;2.78;;
24557;SDS011;12726;49.148;8.582;2023-05-07T15:57:36;6.45;;;2.70;;
24557;SDS011;12726;49.148;8.582;2023-05-07T16:00:21;3.67;;;2.40;;
24557;SDS011;12726;49.148;8.582;2023-05-07T16:03:07;3.30;;;2.70;;
24557;SDS011;12726;49.148;8.582;2023-05-07T16:05:54;5.30;;;2.90;;
24557;SDS011;12726;49.148;8.582;2023-05-07T16:08:40;4.95;;;1.98;;
24557;SDS011;12726;49.148;8.582;2023-05-07T16:11:26;4.00;;;1.73;;
24557;SDS011;12726;49.148;8.582;2023-05-07T16:14:13;4.57;;;2.20;;
24557;SDS011;12726;49.148;8.582;2023-05-07T16:16:59;4.47;;;2.42;;
24557;SDS011;12726;49.148;8.582;2023-05-07T16:19:44;3.70;;;2.10;;
24557;SDS011;12726;49.148;8.582;2023-05-07T16:22:31;4.97;;;1.92;;
24557;SDS011;12726;49.148;8.582;2023-05-07T16:25:16;5.25;;;1.73;;
24557;SDS011;12726;49.148;8.582;2023-05-07T16:28:02;6.13;;;1.80;;
24557;SDS011;12726;49.148;8.582;2023-05-07T16:30:47;5.57;;;2.00;;
24557;SDS011;12726;49.148;8.582;2023-05-07T16:33:32;4.40;;;2.15;;
24557;SDS011;12726;49.148;8.582;2023-05-07T16:36:18;3.38;;;2.25;;
24557;SDS011;12726;49.148;8.582;2023-05-07T16:39:05;3.83;;;1.80;;
24557;SDS011;12726;49.148;8.582;2023-05-07T16:41:50;4.10;;;2.45;;
24557;SDS011;12726;49.148;8.582;2023-05-07T16:44:36;10.48;;;5.57;;
24557;SDS011;12726;49.148;8.582;2023-05-07T16:47:21;6.60;;;4.28;;
24557;SDS011;12726;49.148;8.582;2023-05-07T16:50:07;3.60;;;1.60;;
24557;SDS011;12726;49.148;8.582;2023-05-07T16:52:52;4.47;;;1.48;;